McDonald, Ohio
Current Conditions -  °F | °C
As of 3:34 AM on Friday 19 Dec 2014 (Local Time) from KYNG Reporting Station
Light Snow Light Snow  
Wind Chill: 22°   Ceiling: 600
Heat Index: 29°   Visibility: 5mi
Dew Point: 27°   Wind: 7mph
Humidity: 92%   Direction: 270°W
Pressure: 30.12"   Gusts: NA
Location:  41.16°N, 80.72°W
Report Text: KYNG 190834Z 27006KT 5SM -SN BR OVC006 M02/M03 A3012 RMK AO2 FZDZE34 P0000 I1000 T10171028
Loading
Personal Weather Stations






























Interactive Weather Map New forecast layout! Learn more

10-Day Weather Forecast

Advertisements
Track Severe Weather on mobile